createdAt,value
2017-11-27T00:00:23.991Z,1005.24
2017-11-27T00:01:33.796Z,1005.25
2017-11-27T00:02:43.604Z,1005.23
2017-11-27T00:03:53.418Z,1005.24
2017-11-27T00:05:03.543Z,1005.15
2017-11-27T00:06:13.357Z,1005.18
2017-11-27T00:07:23.170Z,1005.14
2017-11-27T00:08:32.726Z,1005.17
2017-11-27T00:09:42.789Z,1005.21
2017-11-27T00:10:52.613Z,1005.16
2017-11-27T00:12:02.685Z,1005.21
2017-11-27T00:13:12.502Z,1005.16
2017-11-27T00:14:22.317Z,1005.2
2017-11-27T00:15:32.118Z,1005.23
2017-11-27T00:16:42.280Z,1005.2
2017-11-27T00:17:52.363Z,1005.14
2017-11-27T00:19:02.434Z,1005.14
2017-11-27T00:20:12.241Z,1005.15
2017-11-27T00:21:22.303Z,1005.13
2017-11-27T00:22:32.128Z,1005.15
2017-11-27T00:23:42.188Z,1005.11
2017-11-27T00:24:51.733Z,1005.14
2017-11-27T00:26:01.542Z,1005.1
2017-11-27T00:27:11.091Z,1005.09
2017-11-27T00:28:20.372Z,1005.13
2017-11-27T00:29:30.463Z,1005.14
2017-11-27T00:30:40.291Z,1005.1
2017-11-27T00:31:50.372Z,1005.11
2017-11-27T00:33:00.239Z,1005.18
2017-11-27T00:34:10.321Z,1005.15
2017-11-27T00:35:20.107Z,1005.16
2017-11-27T00:36:30.196Z,1005.14
2017-11-27T00:37:40.027Z,1005.17
2017-11-27T00:38:50.150Z,1005.18
2017-11-27T00:40:00.234Z,1005.17
2017-11-27T00:41:10.047Z,1005.16
2017-11-27T00:42:19.842Z,1005.2
2017-11-27T00:43:29.930Z,1005.23
2017-11-27T00:44:40.028Z,1005.29
2017-11-27T00:45:49.893Z,1005.32
2017-11-27T00:46:59.974Z,1005.32
2017-11-27T00:48:10.039Z,1005.33
2017-11-27T00:49:20.119Z,1005.38
2017-11-27T00:50:29.931Z,1005.4
2017-11-27T00:51:39.993Z,1005.36
2017-11-27T00:52:50.075Z,1005.38
2017-11-27T00:54:00.142Z,1005.34
2017-11-27T00:55:09.988Z,1005.44
2017-11-27T00:56:20.061Z,1005.41
2017-11-27T00:57:29.665Z,1005.44
2017-11-27T00:58:39.738Z,1005.41
2017-11-27T00:59:49.552Z,1005.43
2017-11-27T01:00:59.364Z,1005.42
2017-11-27T01:02:08.921Z,1005.43
2017-11-27T01:03:19.274Z,1005.47
2017-11-27T01:04:28.816Z,1005.39
2017-11-27T01:05:38.355Z,1005.4
2017-11-27T01:06:48.176Z,1005.4
2017-11-27T01:07:57.995Z,1005.39
2017-11-27T01:09:08.137Z,1005.4
2017-11-27T01:10:18.244Z,1005.38
2017-11-27T01:11:28.062Z,1005.46
2017-11-27T01:12:38.133Z,1005.46
2017-11-27T01:13:47.943Z,1005.42
2017-11-27T01:14:58.224Z,1005.49
2017-11-27T01:16:08.298Z,1005.48
2017-11-27T01:17:18.106Z,1005.53
2017-11-27T01:18:27.928Z,1005.49
2017-11-27T01:19:38.360Z,1005.5
2017-11-27T01:20:48.170Z,1005.48
2017-11-27T01:21:58.017Z,1005.48
2017-11-27T01:23:07.829Z,1005.52
2017-11-27T01:24:17.918Z,1005.49
2017-11-27T01:25:27.472Z,1005.48
2017-11-27T01:26:37.570Z,1005.52
2017-11-27T01:27:47.386Z,1005.46
2017-11-27T01:28:57.196Z,1005.52
2017-11-27T01:30:07.303Z,1005.46
2017-11-27T01:31:17.368Z,1005.5
2017-11-27T01:32:26.914Z,1005.51
2017-11-27T01:33:36.980Z,1005.44
2017-11-27T01:34:47.143Z,1005.38
2017-11-27T01:35:57.239Z,1005.4
2017-11-27T01:37:07.356Z,1005.36
2017-11-27T01:38:17.165Z,1005.34
2017-11-27T01:39:26.978Z,1005.31
2017-11-27T01:40:36.801Z,1005.3
2017-11-27T01:41:46.611Z,1005.36
2017-11-27T01:42:56.689Z,1005.34
2017-11-27T01:44:06.240Z,1005.3
2017-11-27T01:45:16.042Z,1005.31
2017-11-27T01:46:26.119Z,1005.29
2017-11-27T01:47:36.194Z,1005.25
2017-11-27T01:48:46.292Z,1005.21
2017-11-27T01:49:56.380Z,1005.21
2017-11-27T01:51:06.469Z,1005.2
2017-11-27T01:52:16.340Z,1005.18
2017-11-27T01:53:26.141Z,1005.15
2017-11-27T01:54:36.208Z,1005.2
2017-11-27T01:55:46.286Z,1005.24
2017-11-27T01:56:56.370Z,1005.21
2017-11-27T01:58:06.561Z,1005.22
2017-11-27T01:59:16.633Z,1005.28
2017-11-27T02:00:26.441Z,1005.19
2017-11-27T02:01:36.247Z,1005.19
2017-11-27T02:02:46.046Z,1005.19
2017-11-27T02:03:56.371Z,1005.17
2017-11-27T02:05:05.413Z,1005.19
2017-11-27T02:06:15.488Z,1005.22
2017-11-27T02:07:25.542Z,1005.24
2017-11-27T02:08:35.625Z,1005.22
2017-11-27T02:09:45.164Z,1005.21
2017-11-27T02:10:54.967Z,1005.18
2017-11-27T02:12:04.773Z,1005.24
2017-11-27T02:13:14.842Z,1005.22
2017-11-27T02:14:24.917Z,1005.27
2017-11-27T02:15:35.034Z,1005.24
2017-11-27T02:16:44.841Z,1005.3
2017-11-27T02:17:54.932Z,1005.28
2017-11-27T02:19:05.014Z,1005.26
2017-11-27T02:20:15.086Z,1005.27
2017-11-27T02:21:24.908Z,1005.28
2017-11-27T02:22:35.025Z,1005.26
2017-11-27T02:23:45.097Z,1005.24
2017-11-27T02:24:54.883Z,1005.23
2017-11-27T02:26:04.955Z,1005.22
2017-11-27T02:27:14.777Z,1005.27
2017-11-27T02:28:24.835Z,1005.24
2017-11-27T02:29:34.899Z,1005.26
2017-11-27T02:30:44.724Z,1005.32
2017-11-27T02:31:54.279Z,1005.26
2017-11-27T02:33:04.079Z,1005.31
2017-11-27T02:34:13.635Z,1005.34
2017-11-27T02:35:22.935Z,1005.33
2017-11-27T02:36:33.027Z,1005.36
2017-11-27T02:37:42.846Z,1005.38
2017-11-27T02:38:52.935Z,1005.36
2017-11-27T02:40:02.750Z,1005.38
2017-11-27T02:41:12.831Z,1005.33
2017-11-27T02:42:22.929Z,1005.35
2017-11-27T02:43:33.010Z,1005.37
2017-11-27T02:44:42.901Z,1005.37
2017-11-27T02:45:52.986Z,1005.38
2017-11-27T02:47:03.076Z,1005.4
2017-11-27T02:48:12.883Z,1005.49
2017-11-27T02:49:22.959Z,1005.43
2017-11-27T02:50:33.061Z,1005.48
2017-11-27T02:51:43.143Z,1005.46
2017-11-27T02:52:52.974Z,1005.49
2017-11-27T02:54:02.786Z,1005.47
2017-11-27T02:55:12.609Z,1005.47
2017-11-27T02:56:22.738Z,1005.46
2017-11-27T02:57:32.807Z,1005.49
2017-11-27T02:58:42.934Z,1005.48
2017-11-27T02:59:52.471Z,1005.5
2017-11-27T03:01:02.043Z,1005.5
2017-11-27T03:02:11.849Z,1005.52
2017-11-27T03:33:49.243Z,1005.47
2017-11-27T03:34:59.302Z,1005.49
2017-11-27T03:36:09.393Z,1005.49
2017-11-27T03:37:19.196Z,1005.43
2017-11-27T03:38:29.279Z,1005.5
2017-11-27T03:39:39.089Z,1005.4
2017-11-27T03:40:48.989Z,1005.4
2017-11-27T03:41:58.814Z,1005.37
2017-11-27T03:43:08.364Z,1005.35
2017-11-27T03:44:18.436Z,1005.35
2017-11-27T03:45:28.513Z,1005.37
2017-11-27T03:46:38.601Z,1005.31
2017-11-27T03:47:48.137Z,1005.35
2017-11-27T03:48:58.204Z,1005.28
2017-11-27T03:50:08.299Z,1005.34
2017-11-27T03:51:18.100Z,1005.37
2017-11-27T03:52:27.919Z,1005.36
2017-11-27T03:53:37.473Z,1005.37
2017-11-27T03:54:47.282Z,1005.35
2017-11-27T03:55:57.349Z,1005.27
2017-11-27T03:57:07.224Z,1005.39
2017-11-27T03:58:16.765Z,1005.23
2017-11-27T03:59:26.850Z,1005.29
2017-11-27T04:00:36.135Z,1005.23
2017-11-27T04:01:46.215Z,1005.31
2017-11-27T04:02:56.285Z,1005.28
2017-11-27T04:04:06.104Z,1005.26
2017-11-27T04:05:15.644Z,1005.26
2017-11-27T04:06:25.485Z,1005.24
2017-11-27T04:07:35.292Z,1005.24
2017-11-27T04:08:45.098Z,1005.25
2017-11-27T04:09:55.200Z,1005.23
2017-11-27T04:11:05.297Z,1005.36
2017-11-27T04:12:15.366Z,1005.28
2017-11-27T04:13:25.990Z,1005.42
2017-11-27T04:14:36.450Z,1005.38
2017-11-27T04:15:45.996Z,1005.39
2017-11-27T04:16:56.081Z,1005.4
2017-11-27T04:18:05.899Z,1005.41
2017-11-27T04:19:15.738Z,1005.44
2017-11-27T04:20:25.861Z,1005.47
2017-11-27T04:21:36.358Z,1005.49
2017-11-27T04:22:46.431Z,1005.5
2017-11-27T04:23:56.240Z,1005.55
2017-11-27T04:25:06.322Z,1005.55
2017-11-27T04:26:16.445Z,1005.52
2017-11-27T04:27:26.308Z,1005.55
2017-11-27T04:28:36.110Z,1005.59
2017-11-27T04:29:46.201Z,1005.56
2017-11-27T04:30:56.002Z,1005.56
2017-11-27T04:32:05.870Z,1005.5
2017-11-27T04:33:15.144Z,1005.49
2017-11-27T04:34:24.958Z,1005.54
2017-11-27T04:35:35.054Z,1005.53
2017-11-27T04:36:44.861Z,1005.52
2017-11-27T04:37:54.983Z,1005.56
2017-11-27T04:39:05.090Z,1005.56
2017-11-27T04:40:15.172Z,1005.57
2017-11-27T04:41:24.983Z,1005.66
2017-11-27T04:42:34.802Z,1005.64
2017-11-27T04:43:44.880Z,1005.57
2017-11-27T04:44:54.693Z,1005.6
2017-11-27T04:46:04.779Z,1005.62
2017-11-27T04:47:14.861Z,1005.6
2017-11-27T04:48:24.662Z,1005.63
2017-11-27T04:49:34.794Z,1005.63
2017-11-27T04:50:44.873Z,1005.62
2017-11-27T04:51:54.946Z,1005.65
2017-11-27T04:53:05.060Z,1005.67
2017-11-27T04:54:14.873Z,1005.67
2017-11-27T04:55:24.694Z,1005.65
2017-11-27T04:56:34.772Z,1005.67
2017-11-27T04:57:44.587Z,1005.65
2017-11-27T04:58:54.387Z,1005.68
2017-11-27T05:00:04.494Z,1005.66
2017-11-27T05:01:14.589Z,1005.67
2017-11-27T05:02:24.665Z,1005.7
2017-11-27T05:03:34.206Z,1005.69
2017-11-27T05:04:44.278Z,1005.74
2017-11-27T05:05:53.855Z,1005.69
2017-11-27T05:07:03.717Z,1005.68
2017-11-27T05:08:13.797Z,1005.68
2017-11-27T05:09:23.869Z,1005.72
2017-11-27T05:10:33.957Z,1005.68
2017-11-27T05:11:43.773Z,1005.71
2017-11-27T05:12:53.826Z,1005.77
2017-11-27T05:14:03.658Z,1005.72
2017-11-27T05:15:13.194Z,1005.73
2017-11-27T05:16:23.285Z,1005.74
2017-11-27T05:17:33.590Z,1005.69
2017-11-27T05:18:43.408Z,1005.7
2017-11-27T05:19:53.480Z,1005.73
2017-11-27T05:21:03.564Z,1005.76
2017-11-27T05:22:13.376Z,1005.75
2017-11-27T05:23:23.186Z,1005.79
2017-11-27T05:24:33.255Z,1005.79
2017-11-27T05:25:43.066Z,1005.81
2017-11-27T05:26:53.127Z,1005.79
2017-11-27T05:28:03.212Z,1005.8
2017-11-27T05:29:13.019Z,1005.85
2017-11-27T05:30:23.093Z,1005.84
2017-11-27T05:31:33.151Z,1005.83
2017-11-27T05:32:43.225Z,1005.85
2017-11-27T05:33:53.050Z,1005.85
2017-11-27T05:35:02.849Z,1005.88
2017-11-27T05:36:12.942Z,1005.81
2017-11-27T05:37:22.493Z,1005.83
2017-11-27T05:38:32.325Z,1005.84
2017-11-27T05:39:42.130Z,1005.83
2017-11-27T05:40:52.233Z,1005.83
2017-11-27T05:42:02.099Z,1005.8
2017-11-27T05:43:12.185Z,1005.8
2017-11-27T05:44:21.994Z,1005.79
2017-11-27T05:45:31.813Z,1005.81
2017-11-27T05:46:41.639Z,1005.78
2017-11-27T05:47:51.753Z,1005.81
2017-11-27T05:49:01.573Z,1005.81
2017-11-27T05:50:11.399Z,1005.85
2017-11-27T05:51:21.469Z,1005.8
2017-11-27T05:52:31.552Z,1005.81
2017-11-27T05:53:41.666Z,1005.78
2017-11-27T05:54:51.765Z,1005.8
2017-11-27T05:56:01.575Z,1005.78
2017-11-27T05:57:10.856Z,1005.82
2017-11-27T05:58:20.677Z,1005.78
2017-11-27T05:59:30.490Z,1005.83
2017-11-27T06:00:40.561Z,1005.86
2017-11-27T06:01:50.644Z,1005.84
2017-11-27T06:03:00.456Z,1005.86
2017-11-27T06:04:10.262Z,1005.86
2017-11-27T06:05:20.334Z,1005.92
2017-11-27T06:06:30.149Z,1005.82
2017-11-27T06:07:40.256Z,1005.8
2017-11-27T06:08:50.057Z,1005.87
2017-11-27T06:10:00.171Z,1005.9
2017-11-27T06:11:10.261Z,1005.9
2017-11-27T06:12:20.075Z,1005.95
2017-11-27T06:13:30.155Z,1005.97
2017-11-27T06:14:39.969Z,1005.96
2017-11-27T06:15:50.046Z,1005.94
2017-11-27T06:17:00.236Z,1006
2017-11-27T06:18:10.299Z,1006.07
2017-11-27T06:19:20.404Z,1006.02
2017-11-27T06:20:30.497Z,1005.99
2017-11-27T06:21:40.048Z,1006.01
2017-11-27T06:22:49.630Z,1006.02
2017-11-27T06:23:59.447Z,1005.96
2017-11-27T06:25:09.520Z,1005.97
2017-11-27T06:26:19.579Z,1005.96
2017-11-27T06:27:29.656Z,1006
2017-11-27T06:28:39.774Z,1006.01
2017-11-27T06:29:49.585Z,1006.03
2017-11-27T06:30:59.132Z,1006.09
2017-11-27T06:32:09.226Z,1006.12
2017-11-27T06:33:19.033Z,1006.04
2017-11-27T06:34:29.164Z,1006.04
2017-11-27T06:35:38.979Z,1006.08
2017-11-27T06:36:49.058Z,1006.1
2017-11-27T06:37:58.875Z,1006.08
2017-11-27T06:39:08.687Z,1006.11
2017-11-27T06:40:18.812Z,1006.14
2017-11-27T06:41:28.622Z,1006.19
2017-11-27T06:42:38.174Z,1006.16
2017-11-27T06:43:48.248Z,1006.21
2017-11-27T06:44:58.313Z,1006.21
2017-11-27T06:46:07.924Z,1006.21
2017-11-27T06:47:18.001Z,1006.25
2017-11-27T06:48:27.806Z,1006.24
2017-11-27T06:49:37.915Z,1006.27
2017-11-27T06:50:47.997Z,1006.27
2017-11-27T06:51:57.857Z,1006.29
2017-11-27T06:53:07.942Z,1006.29
2017-11-27T06:54:18.033Z,1006.32
2017-11-27T06:55:28.122Z,1006.36
2017-11-27T06:56:37.957Z,1006.33
2017-11-27T06:57:47.745Z,1006.37
2017-11-27T06:58:57.557Z,1006.34
2017-11-27T07:00:07.638Z,1006.34
2017-11-27T07:01:17.466Z,1006.32
2017-11-27T07:02:27.593Z,1006.33
2017-11-27T07:03:37.665Z,1006.3
2017-11-27T07:04:47.739Z,1006.3
2017-11-27T07:05:57.812Z,1006.32
2017-11-27T07:07:07.633Z,1006.35
2017-11-27T07:08:17.727Z,1006.4
2017-11-27T07:09:27.580Z,1006.43
2017-11-27T07:10:37.643Z,1006.39
2017-11-27T07:11:47.731Z,1006.37
2017-11-27T07:12:57.820Z,1006.36
2017-11-27T07:14:07.098Z,1006.35
2017-11-27T07:15:16.911Z,1006.38
2017-11-27T07:16:26.975Z,1006.39
2017-11-27T07:17:37.050Z,1006.36
2017-11-27T07:18:46.865Z,1006.34
2017-11-27T07:19:56.944Z,1006.4
2017-11-27T07:21:07.027Z,1006.41
2017-11-27T07:22:17.106Z,1006.39
2017-11-27T07:23:27.190Z,1006.35
2017-11-27T07:24:37.322Z,1006.42
2017-11-27T07:25:47.395Z,1006.41
2017-11-27T07:26:57.476Z,1006.43
2017-11-27T07:28:07.571Z,1006.44
2017-11-27T07:29:17.387Z,1006.46
2017-11-27T07:30:27.208Z,1006.49
2017-11-27T07:31:37.012Z,1006.48
2017-11-27T07:32:47.163Z,1006.44
2017-11-27T07:33:56.989Z,1006.43
2017-11-27T07:35:07.065Z,1006.46
2017-11-27T07:36:16.878Z,1006.43
2017-11-27T07:37:27.032Z,1006.42
2017-11-27T07:38:37.128Z,1006.46
2017-11-27T07:39:47.222Z,1006.44
2017-11-27T07:40:57.335Z,1006.45
2017-11-27T07:42:06.641Z,1006.51
2017-11-27T07:43:16.710Z,1006.5
2017-11-27T07:44:26.576Z,1006.5
2017-11-27T07:45:36.670Z,1006.49
2017-11-27T07:46:46.500Z,1006.5
2017-11-27T07:47:56.311Z,1006.51
2017-11-27T07:49:06.398Z,1006.51
2017-11-27T07:50:16.545Z,1006.56
2017-11-27T07:51:26.352Z,1006.53
2017-11-27T07:52:36.207Z,1006.56
2017-11-27T07:53:45.500Z,1006.53
2017-11-27T07:54:55.568Z,1006.57
2017-11-27T07:56:05.394Z,1006.55
2017-11-27T07:57:15.504Z,1006.55
2017-11-27T07:58:25.580Z,1006.56
2017-11-27T07:59:35.425Z,1006.55
2017-11-27T08:00:44.975Z,1006.52
2017-11-27T08:01:55.108Z,1006.59
2017-11-27T08:03:05.223Z,1006.55
2017-11-27T08:04:15.052Z,1006.58
2017-11-27T08:05:25.125Z,1006.52
2017-11-27T08:06:35.103Z,1006.56
2017-11-27T08:07:45.181Z,1006.55
2017-11-27T08:08:55.001Z,1006.56
2017-11-27T08:10:05.116Z,1006.54
2017-11-27T08:11:15.207Z,1006.53
2017-11-27T08:12:25.289Z,1006.55
2017-11-27T08:13:35.156Z,1006.55
2017-11-27T08:14:45.233Z,1006.52
2017-11-27T08:15:55.057Z,1006.53
2017-11-27T08:17:04.872Z,1006.55
2017-11-27T08:18:14.949Z,1006.56
2017-11-27T08:19:24.470Z,1006.56
2017-11-27T08:20:34.273Z,1006.55
2017-11-27T08:21:44.343Z,1006.52
2017-11-27T08:22:54.426Z,1006.58
2017-11-27T08:24:04.496Z,1006.57
2017-11-27T08:25:14.623Z,1006.59
2017-11-27T08:26:24.430Z,1006.52
2017-11-27T08:27:33.983Z,1006.59
2017-11-27T08:28:44.090Z,1006.54
2017-11-27T08:29:53.912Z,1006.58
2017-11-27T08:31:03.756Z,1006.6
2017-11-27T08:32:13.860Z,1006.55
2017-11-27T08:33:23.957Z,1006.61
2017-11-27T08:34:34.057Z,1006.57
2017-11-27T08:35:44.160Z,1006.6
2017-11-27T08:36:54.226Z,1006.62
2017-11-27T08:38:03.777Z,1006.62
2017-11-27T08:39:13.379Z,1006.64
2017-11-27T08:40:23.226Z,1006.64
2017-11-27T08:41:33.317Z,1006.68
2017-11-27T08:42:43.390Z,1006.66
2017-11-27T08:43:53.216Z,1006.66
2017-11-27T08:45:03.087Z,1006.69
2017-11-27T08:46:13.214Z,1006.64
2017-11-27T08:47:23.306Z,1006.63
2017-11-27T08:48:33.390Z,1006.66
2017-11-27T08:49:42.675Z,1006.62
2017-11-27T08:50:52.752Z,1006.62
2017-11-27T08:52:02.814Z,1006.65
2017-11-27T08:53:12.617Z,1006.63
2017-11-27T08:54:23.436Z,1006.63
2017-11-27T08:55:33.253Z,1006.67
2017-11-27T08:56:43.373Z,1006.63
2017-11-27T08:57:53.441Z,1006.65
2017-11-27T08:59:03.262Z,1006.71
2017-11-27T09:00:13.361Z,1006.68
2017-11-27T09:01:23.448Z,1006.64
2017-11-27T09:02:33.333Z,1006.68
2017-11-27T09:03:43.154Z,1006.72
2017-11-27T09:04:53.233Z,1006.68
2017-11-27T09:06:02.782Z,1006.62
2017-11-27T09:07:12.602Z,1006.64
2017-11-27T09:08:22.206Z,1006.67
2017-11-27T09:09:32.275Z,1006.64
2017-11-27T09:10:42.363Z,1006.66
2017-11-27T09:11:52.173Z,1006.65
2017-11-27T09:13:02.245Z,1006.66
2017-11-27T09:14:12.338Z,1006.63
2017-11-27T09:15:22.415Z,1006.62
2017-11-27T09:16:32.508Z,1006.66
2017-11-27T09:17:42.588Z,1006.63
2017-11-27T09:18:52.134Z,1006.62
2017-11-27T09:20:02.196Z,1006.6
2017-11-27T09:21:12.288Z,1006.61
2017-11-27T09:22:22.110Z,1006.6
2017-11-27T09:23:31.920Z,1006.58
2017-11-27T09:24:42.014Z,1006.6
2017-11-27T09:25:52.100Z,1006.6
2017-11-27T09:27:02.152Z,1006.58
2017-11-27T09:28:12.241Z,1006.58
2017-11-27T09:29:22.055Z,1006.56
2017-11-27T09:30:31.606Z,1006.54
2017-11-27T09:31:41.751Z,1006.51
2017-11-27T09:32:51.295Z,1006.57
2017-11-27T09:34:01.377Z,1006.51
2017-11-27T09:35:11.214Z,1006.47
2017-11-27T09:36:21.316Z,1006.54
2017-11-27T09:37:31.402Z,1006.49
2017-11-27T09:38:41.498Z,1006.48
2017-11-27T09:39:52.236Z,1006.5
2017-11-27T09:41:02.314Z,1006.48
2017-11-27T09:42:12.417Z,1006.47
2017-11-27T09:43:22.288Z,1006.54
2017-11-27T09:44:32.364Z,1006.47
2017-11-27T09:45:42.422Z,1006.52
2017-11-27T09:46:51.984Z,1006.49
2017-11-27T09:48:01.833Z,1006.59
2017-11-27T09:49:11.970Z,1006.57
2017-11-27T09:50:21.236Z,1006.59
2017-11-27T09:51:31.063Z,1006.61
2017-11-27T09:52:40.904Z,1006.55
2017-11-27T09:53:50.497Z,1006.55
2017-11-27T09:55:00.781Z,1006.56
2017-11-27T09:56:10.582Z,1006.54
2017-11-27T09:57:20.693Z,1006.54
2017-11-27T09:58:30.248Z,1006.48
2017-11-27T09:59:40.061Z,1006.4
2017-11-27T10:00:50.158Z,1006.43
2017-11-27T10:01:59.980Z,1006.36
2017-11-27T10:03:09.802Z,1006.37
2017-11-27T10:04:19.613Z,1006.33
2017-11-27T10:05:29.431Z,1006.26
2017-11-27T10:06:39.304Z,1006.35
2017-11-27T10:07:49.391Z,1006.29
2017-11-27T10:08:59.473Z,1006.3
2017-11-27T10:10:09.313Z,1006.31
2017-11-27T10:11:19.379Z,1006.32
2017-11-27T10:12:29.488Z,1006.3
2017-11-27T10:13:39.295Z,1006.31
2017-11-27T10:14:49.370Z,1006.26
2017-11-27T10:15:59.198Z,1006.25
2017-11-27T10:17:09.007Z,1006.24
2017-11-27T10:18:19.100Z,1006.24
2017-11-27T10:19:29.185Z,1006.21
2017-11-27T10:20:39.002Z,1006.15
2017-11-27T10:21:49.079Z,1006.18
2017-11-27T10:22:58.631Z,1006.17
2017-11-27T10:24:08.442Z,1006.14
2017-11-27T10:25:18.282Z,1006.16
2017-11-27T10:26:28.399Z,1006.14
2017-11-27T10:27:38.576Z,1006.13
2017-11-27T10:28:48.686Z,1006.09
2017-11-27T10:29:58.821Z,1006.08
2017-11-27T10:31:08.644Z,1006.09
2017-11-27T10:32:18.468Z,1006.14
2017-11-27T10:33:28.560Z,1006.09
2017-11-27T10:34:38.642Z,1006.05
2017-11-27T10:35:48.465Z,1006.09
2017-11-27T10:36:58.552Z,1006.01
2017-11-27T10:38:08.421Z,1005.99
2017-11-27T10:39:18.512Z,1005.99
2017-11-27T10:40:28.359Z,1005.91
2017-11-27T10:41:38.440Z,1005.99
2017-11-27T10:42:48.263Z,1005.96
2017-11-27T10:43:58.353Z,1005.92
2017-11-27T10:45:08.442Z,1005.86
2017-11-27T10:46:18.324Z,1005.87
2017-11-27T10:47:28.432Z,1005.88
2017-11-27T10:48:38.230Z,1005.91
2017-11-27T10:49:48.325Z,1005.87
2017-11-27T10:50:58.416Z,1005.89
2017-11-27T10:52:08.498Z,1005.9
2017-11-27T10:53:18.588Z,1005.83
2017-11-27T10:54:28.399Z,1005.81
2017-11-27T10:55:38.228Z,1005.8
2017-11-27T10:56:48.301Z,1005.78
2017-11-27T10:57:58.382Z,1005.68
2017-11-27T10:59:08.472Z,1005.74
2017-11-27T11:00:18.018Z,1005.79
2017-11-27T11:01:28.093Z,1005.65
2017-11-27T11:02:37.643Z,1005.65
2017-11-27T11:03:47.449Z,1005.69
2017-11-27T11:04:57.531Z,1005.66
2017-11-27T11:06:07.341Z,1005.59
2017-11-27T11:07:16.892Z,1005.62
2017-11-27T11:08:26.733Z,1005.62
2017-11-27T11:09:36.818Z,1005.68
2017-11-27T11:10:46.699Z,1005.57
2017-11-27T11:11:56.499Z,1005.64
2017-11-27T11:13:06.074Z,1005.61
2017-11-27T11:14:16.165Z,1005.69
2017-11-27T11:15:25.448Z,1005.6
2017-11-27T11:16:35.257Z,1005.6
2017-11-27T11:17:46.103Z,1005.58
2017-11-27T11:18:56.177Z,1005.56
2017-11-27T11:20:06.010Z,1005.65
2017-11-27T11:21:16.126Z,1005.64
2017-11-27T11:22:26.253Z,1005.59
2017-11-27T11:23:36.391Z,1005.58
2017-11-27T11:24:45.685Z,1005.61
2017-11-27T11:25:55.491Z,1005.66
2017-11-27T11:27:05.336Z,1005.57
2017-11-27T11:28:15.477Z,1005.55
2017-11-27T11:29:25.066Z,1005.56
2017-11-27T11:30:35.140Z,1005.58
2017-11-27T11:31:45.098Z,1005.53
2017-11-27T11:32:54.388Z,1005.41
2017-11-27T11:34:04.468Z,1005.51
2017-11-27T11:35:14.299Z,1005.48
2017-11-27T11:36:24.390Z,1005.46
2017-11-27T11:37:34.197Z,1005.51
2017-11-27T11:38:44.284Z,1005.48
2017-11-27T11:39:54.363Z,1005.5
2017-11-27T11:41:04.188Z,1005.57
2017-11-27T11:42:14.000Z,1005.41
2017-11-27T11:43:23.820Z,1005.41
2017-11-27T11:44:33.903Z,1005.39
2017-11-27T11:45:43.988Z,1005.35
2017-11-27T11:46:53.825Z,1005.26
2017-11-27T11:48:03.929Z,1005.31
2017-11-27T11:49:14.033Z,1005.23
2017-11-27T11:50:23.357Z,1005.21
2017-11-27T11:51:33.234Z,1005.16
2017-11-27T11:52:43.066Z,1005.12
2017-11-27T11:53:53.158Z,1005.16
2017-11-27T11:55:03.236Z,1005.17
2017-11-27T11:56:13.329Z,1005.13
2017-11-27T11:57:23.591Z,1005.23
2017-11-27T11:58:33.661Z,1005.23
2017-11-27T11:59:43.744Z,1005.23
2017-11-27T12:00:53.834Z,1005.21
2017-11-27T12:02:03.955Z,1005.23
2017-11-27T12:03:13.814Z,1005.13
2017-11-27T12:04:23.629Z,1005.06
2017-11-27T12:05:33.703Z,1005.07
2017-11-27T12:06:43.780Z,1005.09
2017-11-27T12:07:53.593Z,1005.01
2017-11-27T12:09:03.731Z,1005.04
2017-11-27T12:10:13.556Z,1005.04
2017-11-27T12:11:23.672Z,1004.97
2017-11-27T12:12:33.489Z,1005.09
2017-11-27T12:13:43.321Z,1005.03
2017-11-27T12:14:53.454Z,1005.05
2017-11-27T12:16:03.026Z,1004.92
2017-11-27T12:17:13.110Z,1005.02
2017-11-27T12:18:23.206Z,1004.98
2017-11-27T12:19:33.300Z,1004.98
2017-11-27T12:20:43.382Z,1004.9
2017-11-27T12:21:53.472Z,1004.99
2017-11-27T12:23:03.571Z,1005.11
2017-11-27T12:24:13.384Z,1005.04
2017-11-27T12:25:23.452Z,1005.02
2017-11-27T12:26:33.642Z,1005.02
2017-11-27T12:27:43.196Z,1005.02
2017-11-27T12:28:53.274Z,1004.92
2017-11-27T12:30:03.356Z,1004.95
2017-11-27T12:31:12.916Z,1004.94
2017-11-27T12:32:23.003Z,1004.92
2017-11-27T12:33:32.816Z,1004.89
2017-11-27T12:34:42.912Z,1004.88
2017-11-27T12:35:52.997Z,1004.92
2017-11-27T12:37:03.106Z,1004.93
2017-11-27T12:38:12.690Z,1004.99
2017-11-27T12:39:22.792Z,1004.91
2017-11-27T12:40:32.902Z,1004.91
2017-11-27T12:41:43.028Z,1004.91
2017-11-27T12:42:53.155Z,1004.88
2017-11-27T12:44:03.447Z,1004.87
2017-11-27T12:45:16.543Z,1004.79
2017-11-27T12:46:26.767Z,1004.86
2017-11-27T12:47:36.585Z,1004.84
2017-11-27T12:48:45.871Z,1004.89
2017-11-27T12:49:55.707Z,1004.77
2017-11-27T12:51:05.804Z,1004.87
2017-11-27T12:52:15.617Z,1004.84
2017-11-27T12:53:25.166Z,1004.83
2017-11-27T12:54:34.998Z,1004.75
2017-11-27T12:55:45.072Z,1004.82
2017-11-27T12:56:55.169Z,1004.83
2017-11-27T12:58:04.984Z,1004.83
2017-11-27T12:59:14.530Z,1004.85
2017-11-27T13:00:24.666Z,1004.79
2017-11-27T13:01:34.849Z,1004.85
2017-11-27T13:02:44.948Z,1004.78
2017-11-27T13:03:54.568Z,1004.82
2017-11-27T13:05:04.692Z,1004.78
2017-11-27T13:06:14.786Z,1004.77
2017-11-27T13:07:24.885Z,1004.8
2017-11-27T13:08:34.735Z,1004.8
2017-11-27T13:09:44.548Z,1004.71
2017-11-27T13:10:54.648Z,1004.71
2017-11-27T13:12:04.511Z,1004.75
2017-11-27T13:13:14.634Z,1004.77
2017-11-27T13:14:24.759Z,1004.73
2017-11-27T13:15:34.574Z,1004.73
2017-11-27T13:16:44.691Z,1004.75
2017-11-27T13:17:54.268Z,1004.73
2017-11-27T13:19:03.831Z,1004.74
2017-11-27T13:20:13.962Z,1004.7
2017-11-27T13:21:24.069Z,1004.67
2017-11-27T13:22:33.922Z,1004.67
2017-11-27T13:23:43.747Z,1004.68
2017-11-27T13:24:53.641Z,1004.62
2017-11-27T13:26:03.730Z,1004.68
2017-11-27T13:27:13.812Z,1004.67
2017-11-27T13:28:23.935Z,1004.62
2017-11-27T13:29:34.103Z,1004.61
2017-11-27T13:30:43.966Z,1004.58
2017-11-27T13:31:54.075Z,1004.56
2017-11-27T13:33:03.683Z,1004.59
2017-11-27T13:34:13.539Z,1004.53
2017-11-27T13:35:23.441Z,1004.55
2017-11-27T13:36:33.522Z,1004.51
2017-11-27T13:37:43.604Z,1004.56
2017-11-27T13:38:53.688Z,1004.52
2017-11-27T13:40:03.787Z,1004.49
2017-11-27T13:41:13.887Z,1004.56
2017-11-27T13:42:24.138Z,1004.52
2017-11-27T13:43:33.965Z,1004.53
2017-11-27T13:44:44.052Z,1004.54
2017-11-27T13:45:54.156Z,1004.55
2017-11-27T13:47:03.998Z,1004.45
2017-11-27T13:48:13.571Z,1004.47
2017-11-27T13:49:23.669Z,1004.44
2017-11-27T13:50:33.901Z,1004.46
2017-11-27T13:51:43.747Z,1004.45
2017-11-27T13:52:53.318Z,1004.41
2017-11-27T13:54:03.452Z,1004.42
2017-11-27T13:55:14.145Z,1004.45
2017-11-27T13:56:24.469Z,1004.4
2017-11-27T13:57:34.572Z,1004.42
2017-11-27T13:58:44.454Z,1004.44
2017-11-27T13:59:54.628Z,1004.43
2017-11-27T14:01:04.788Z,1004.46
2017-11-27T14:02:14.895Z,1004.39
2017-11-27T14:03:25.030Z,1004.42
2017-11-27T14:04:34.922Z,1004.38
2017-11-27T14:05:45.012Z,1004.38
2017-11-27T14:07:09.428Z,1004.39
2017-11-27T14:08:21.446Z,1004.37
2017-11-27T14:09:31.302Z,1004.4
2017-11-27T14:10:41.415Z,1004.4
2017-11-27T14:11:51.502Z,1004.39
2017-11-27T14:13:01.571Z,1004.45
2017-11-27T14:14:11.411Z,1004.42
2017-11-27T14:15:21.244Z,1004.42
2017-11-27T14:16:31.349Z,1004.42
2017-11-27T14:17:41.171Z,1004.42
2017-11-27T14:18:52.241Z,1004.39
2017-11-27T14:20:04.157Z,1004.44
2017-11-27T14:21:13.728Z,1004.42
2017-11-27T14:22:24.079Z,1004.36
2017-11-27T14:23:35.233Z,1004.36
2017-11-27T14:24:45.085Z,1004.37
2017-11-27T14:25:55.208Z,1004.39
2017-11-27T14:27:07.868Z,1004.43
2017-11-27T14:28:17.946Z,1004.45
2017-11-27T14:29:27.831Z,1004.39
2017-11-27T14:30:39.043Z,1004.36
2017-11-27T14:31:49.137Z,1004.35
2017-11-27T14:32:59.262Z,1004.31
2017-11-27T14:34:09.362Z,1004.34
2017-11-27T14:35:19.254Z,1004.3
2017-11-27T14:36:29.092Z,1004.25
2017-11-27T14:37:39.202Z,1004.23
2017-11-27T14:38:49.295Z,1004.28
2017-11-27T14:39:58.582Z,1004.26